sensor_id;sensor_type;location;lat;lon;timestamp;pressure;altitude;pressure_sealevel;temperature;humidity
39455;BME280;25155;41.890;23.446;2023-11-19T00:02:22;91503.56;;;-0.29;75.73
39455;BME280;25155;41.890;23.446;2023-11-19T00:04:49;91501.72;;;-0.22;76.14
39455;BME280;25155;41.890;23.446;2023-11-19T00:07:18;91500.34;;;-0.17;76.44
39455;BME280;25155;41.890;23.446;2023-11-19T00:09:45;91508.44;;;-0.21;76.87
39455;BME280;25155;41.890;23.446;2023-11-19T00:12:13;91510.06;;;-0.26;76.88
39455;BME280;25155;41.890;23.446;2023-11-19T00:14:40;91511.81;;;-0.27;77.21
39455;BME280;25155;41.890;23.446;2023-11-19T00:17:07;91507.72;;;-0.28;77.30
39455;BME280;25155;41.890;23.446;2023-11-19T00:19:35;91518.75;;;-0.27;77.34
39455;BME280;25155;41.890;23.446;2023-11-19T00:22:02;91524.69;;;-0.33;77.29
39455;BME280;25155;41.890;23.446;2023-11-19T00:24:31;91513.09;;;-0.36;77.49
39455;BME280;25155;41.890;23.446;2023-11-19T00:26:59;91520.94;;;-0.31;77.38
39455;BME280;25155;41.890;23.446;2023-11-19T00:29:26;91510.88;;;-0.32;76.95
39455;BME280;25155;41.890;23.446;2023-11-19T00:31:53;91501.25;;;-0.37;77.49
39455;BME280;25155;41.890;23.446;2023-11-19T00:34:21;91506.19;;;-0.35;77.15
39455;BME280;25155;41.890;23.446;2023-11-19T00:36:48;91505.41;;;-0.36;77.55
39455;BME280;25155;41.890;23.446;2023-11-19T00:39:16;91513.44;;;-0.32;76.89
39455;BME280;25155;41.890;23.446;2023-11-19T00:41:48;91510.13;;;-0.33;77.21
39455;BME280;25155;41.890;23.446;2023-11-19T00:44:15;91516.38;;;-0.29;77.26
39455;BME280;25155;41.890;23.446;2023-11-19T00:46:42;91522.59;;;-0.11;76.80
39455;BME280;25155;41.890;23.446;2023-11-19T00:49:09;91515.16;;;-0.20;76.75
39455;BME280;25155;41.890;23.446;2023-11-19T00:51:37;91524.22;;;-0.24;76.81
39455;BME280;25155;41.890;23.446;2023-11-19T00:54:04;91520.69;;;-0.23;76.37
39455;BME280;25155;41.890;23.446;2023-11-19T00:56:32;91522.72;;;-0.31;77.01
39455;BME280;25155;41.890;23.446;2023-11-19T00:59:00;91515.03;;;-0.31;77.31
39455;BME280;25155;41.890;23.446;2023-11-19T01:01:28;91512.06;;;-0.35;77.67
39455;BME280;25155;41.890;23.446;2023-11-19T01:03:55;91538.13;;;-0.38;77.97
39455;BME280;25155;41.890;23.446;2023-11-19T01:06:29;91544.03;;;-0.38;78.02
39455;BME280;25155;41.890;23.446;2023-11-19T01:08:57;91529.81;;;-0.33;78.15
39455;BME280;25155;41.890;23.446;2023-11-19T01:11:25;91514.38;;;-0.27;77.31
39455;BME280;25155;41.890;23.446;2023-11-19T01:13:53;91511.47;;;-0.30;77.32
39455;BME280;25155;41.890;23.446;2023-11-19T01:16:22;91538.50;;;-0.34;77.48
39455;BME280;25155;41.890;23.446;2023-11-19T01:18:50;91521.56;;;-0.35;77.84
39455;BME280;25155;41.890;23.446;2023-11-19T01:21:17;91525.06;;;-0.30;77.49
39455;BME280;25155;41.890;23.446;2023-11-19T01:23:45;91520.38;;;-0.33;77.69
39455;BME280;25155;41.890;23.446;2023-11-19T01:26:12;91527.09;;;-0.39;78.14
39455;BME280;25155;41.890;23.446;2023-11-19T01:28:41;91527.44;;;-0.35;77.75
39455;BME280;25155;41.890;23.446;2023-11-19T01:31:11;91532.97;;;-0.31;77.98
39455;BME280;25155;41.890;23.446;2023-11-19T01:33:40;91531.59;;;-0.34;77.33
39455;BME280;25155;41.890;23.446;2023-11-19T01:36:08;91529.78;;;-0.27;77.45
39455;BME280;25155;41.890;23.446;2023-11-19T01:38:36;91533.91;;;-0.26;77.32
39455;BME280;25155;41.890;23.446;2023-11-19T01:41:04;91538.63;;;-0.23;77.04
39455;BME280;25155;41.890;23.446;2023-11-19T01:43:32;91525.41;;;-0.20;76.83
39455;BME280;25155;41.890;23.446;2023-11-19T01:46:01;91539.53;;;-0.10;76.09
39455;BME280;25155;41.890;23.446;2023-11-19T01:48:29;91531.59;;;-0.02;75.78
39455;BME280;25155;41.890;23.446;2023-11-19T01:50:58;91551.69;;;0.01;75.36
39455;BME280;25155;41.890;23.446;2023-11-19T01:53:26;91559.47;;;0.13;74.86
39455;BME280;25155;41.890;23.446;2023-11-19T01:55:55;91558.72;;;0.12;74.07
39455;BME280;25155;41.890;23.446;2023-11-19T01:58:24;91566.25;;;0.07;74.02
39455;BME280;25155;41.890;23.446;2023-11-19T02:00:51;91555.56;;;0.10;74.13
39455;BME280;25155;41.890;23.446;2023-11-19T02:03:20;91554.34;;;0.13;73.93
39455;BME280;25155;41.890;23.446;2023-11-19T02:05:48;91554.97;;;0.15;73.77
39455;BME280;25155;41.890;23.446;2023-11-19T02:08:18;91566.97;;;0.14;73.63
39455;BME280;25155;41.890;23.446;2023-11-19T02:10:47;91565.78;;;0.17;73.74
39455;BME280;25155;41.890;23.446;2023-11-19T02:13:14;91552.00;;;0.11;73.49
39455;BME280;25155;41.890;23.446;2023-11-19T02:15:42;91568.41;;;0.10;73.34
39455;BME280;25155;41.890;23.446;2023-11-19T02:18:19;91576.66;;;0.12;73.66
39455;BME280;25155;41.890;23.446;2023-11-19T02:20:48;91580.22;;;0.11;73.18
39455;BME280;25155;41.890;23.446;2023-11-19T02:23:17;91570.03;;;-0.02;73.20
39455;BME280;25155;41.890;23.446;2023-11-19T02:25:58;91582.84;;;-0.02;73.37
39455;BME280;25155;41.890;23.446;2023-11-19T02:28:28;91595.88;;;-0.04;73.67
39455;BME280;25155;41.890;23.446;2023-11-19T02:30:56;91599.38;;;0.09;73.35
39455;BME280;25155;41.890;23.446;2023-11-19T02:33:23;91589.06;;;0.15;73.06
39455;BME280;25155;41.890;23.446;2023-11-19T02:35:50;91580.38;;;0.16;72.23
39455;BME280;25155;41.890;23.446;2023-11-19T02:38:18;91576.00;;;0.24;72.57
39455;BME280;25155;41.890;23.446;2023-11-19T02:40:47;91573.22;;;0.25;72.52
39455;BME280;25155;41.890;23.446;2023-11-19T02:43:15;91576.81;;;0.17;72.62
39455;BME280;25155;41.890;23.446;2023-11-19T02:45:45;91574.47;;;0.16;72.35
39455;BME280;25155;41.890;23.446;2023-11-19T02:48:12;91580.56;;;0.22;71.99
39455;BME280;25155;41.890;23.446;2023-11-19T02:50:41;91587.75;;;0.06;71.92
39455;BME280;25155;41.890;23.446;2023-11-19T02:53:09;91600.34;;;0.08;72.41
39455;BME280;25155;41.890;23.446;2023-11-19T02:55:36;91606.44;;;0.13;72.31
39455;BME280;25155;41.890;23.446;2023-11-19T02:58:06;91595.75;;;0.16;71.66
39455;BME280;25155;41.890;23.446;2023-11-19T03:00:46;91584.25;;;0.26;71.67
39455;BME280;25155;41.890;23.446;2023-11-19T03:03:19;91570.88;;;0.24;71.21
39455;BME280;25155;41.890;23.446;2023-11-19T03:05:48;91554.47;;;0.25;71.26
39455;BME280;25155;41.890;23.446;2023-11-19T03:08:16;91555.84;;;0.27;71.12
39455;BME280;25155;41.890;23.446;2023-11-19T03:10:43;91560.69;;;0.10;71.52
39455;BME280;25155;41.890;23.446;2023-11-19T03:13:12;91575.16;;;-0.02;72.28
39455;BME280;25155;41.890;23.446;2023-11-19T03:15:41;91576.59;;;-0.06;72.75
39455;BME280;25155;41.890;23.446;2023-11-19T03:18:10;91574.44;;;-0.09;72.84
39455;BME280;25155;41.890;23.446;2023-11-19T03:20:37;91574.03;;;-0.06;72.93
39455;BME280;25155;41.890;23.446;2023-11-19T03:23:04;91555.34;;;-0.20;73.31
39455;BME280;25155;41.890;23.446;2023-11-19T03:25:32;91572.53;;;-0.21;73.45
39455;BME280;25155;41.890;23.446;2023-11-19T03:28:02;91569.19;;;-0.21;73.37
39455;BME280;25155;41.890;23.446;2023-11-19T03:30:31;91571.13;;;-0.16;73.25
39455;BME280;25155;41.890;23.446;2023-11-19T03:32:58;91571.13;;;-0.16;73.26
39455;BME280;25155;41.890;23.446;2023-11-19T03:35:28;91573.50;;;-0.22;73.55
39455;BME280;25155;41.890;23.446;2023-11-19T03:37:56;91575.03;;;-0.14;73.30
39455;BME280;25155;41.890;23.446;2023-11-19T03:40:23;91582.19;;;-0.23;73.16
39455;BME280;25155;41.890;23.446;2023-11-19T03:42:50;91586.13;;;-0.20;72.97
39455;BME280;25155;41.890;23.446;2023-11-19T03:45:18;91583.75;;;-0.22;73.16
39455;BME280;25155;41.890;23.446;2023-11-19T03:47:45;91590.63;;;-0.15;73.13
39455;BME280;25155;41.890;23.446;2023-11-19T03:50:15;91587.25;;;-0.09;72.62
39455;BME280;25155;41.890;23.446;2023-11-19T03:52:47;91585.66;;;-0.10;72.31
39455;BME280;25155;41.890;23.446;2023-11-19T03:55:14;91580.91;;;0.00;72.05
39455;BME280;25155;41.890;23.446;2023-11-19T03:57:41;91581.25;;;0.04;71.53
39455;BME280;25155;41.890;23.446;2023-11-19T04:00:09;91591.53;;;0.04;71.60
39455;BME280;25155;41.890;23.446;2023-11-19T04:02:40;91586.81;;;0.01;72.19
39455;BME280;25155;41.890;23.446;2023-11-19T04:05:07;91593.97;;;-0.08;72.17
39455;BME280;25155;41.890;23.446;2023-11-19T04:07:35;91577.66;;;-0.21;72.66
39455;BME280;25155;41.890;23.446;2023-11-19T04:10:05;91598.31;;;-0.15;72.84
39455;BME280;25155;41.890;23.446;2023-11-19T04:12:32;91584.34;;;-0.20;72.90
39455;BME280;25155;41.890;23.446;2023-11-19T04:14:59;91595.97;;;-0.17;73.13
39455;BME280;25155;41.890;23.446;2023-11-19T04:17:27;91618.84;;;-0.15;72.76
39455;BME280;25155;41.890;23.446;2023-11-19T04:19:55;91612.97;;;-0.23;73.10
39455;BME280;25155;41.890;23.446;2023-11-19T04:22:22;91606.66;;;-0.27;73.37
39455;BME280;25155;41.890;23.446;2023-11-19T04:24:49;91618.47;;;-0.19;72.83
39455;BME280;25155;41.890;23.446;2023-11-19T04:27:18;91617.31;;;-0.23;73.25
39455;BME280;25155;41.890;23.446;2023-11-19T04:29:45;91592.03;;;-0.20;72.87
39455;BME280;25155;41.890;23.446;2023-11-19T04:32:16;91589.94;;;-0.29;73.07
39455;BME280;25155;41.890;23.446;2023-11-19T04:34:44;91577.91;;;-0.29;73.20
39455;BME280;25155;41.890;23.446;2023-11-19T04:37:11;91594.91;;;-0.41;73.68
39455;BME280;25155;41.890;23.446;2023-11-19T04:39:38;91604.56;;;-0.43;73.54
39455;BME280;25155;41.890;23.446;2023-11-19T04:42:05;91599.88;;;-0.46;73.88
39455;BME280;25155;41.890;23.446;2023-11-19T04:44:34;91588.41;;;-0.44;74.20
39455;BME280;25155;41.890;23.446;2023-11-19T04:47:02;91593.00;;;-0.52;74.45
39455;BME280;25155;41.890;23.446;2023-11-19T04:49:29;91593.75;;;-0.45;74.34
39455;BME280;25155;41.890;23.446;2023-11-19T04:51:57;91602.03;;;-0.50;74.58
39455;BME280;25155;41.890;23.446;2023-11-19T04:54:24;91589.03;;;-0.55;74.17
39455;BME280;25155;41.890;23.446;2023-11-19T04:56:51;91593.41;;;-0.56;74.82
39455;BME280;25155;41.890;23.446;2023-11-19T04:59:19;91589.84;;;-0.54;74.31
39455;BME280;25155;41.890;23.446;2023-11-19T05:01:48;91599.69;;;-0.58;74.71
39455;BME280;25155;41.890;23.446;2023-11-19T05:04:16;91598.91;;;-0.59;74.61
39455;BME280;25155;41.890;23.446;2023-11-19T05:06:44;91601.47;;;-0.59;74.87
39455;BME280;25155;41.890;23.446;2023-11-19T05:09:11;91603.25;;;-0.52;74.44
39455;BME280;25155;41.890;23.446;2023-11-19T05:11:39;91596.53;;;-0.53;74.55
39455;BME280;25155;41.890;23.446;2023-11-19T05:14:08;91601.25;;;-0.50;74.54
39455;BME280;25155;41.890;23.446;2023-11-19T05:16:37;91590.22;;;-0.51;74.31
39455;BME280;25155;41.890;23.446;2023-11-19T05:19:07;91602.22;;;-0.51;74.53
39455;BME280;25155;41.890;23.446;2023-11-19T05:21:34;91591.97;;;-0.51;74.22
39455;BME280;25155;41.890;23.446;2023-11-19T05:24:02;91591.59;;;-0.48;73.95
39455;BME280;25155;41.890;23.446;2023-11-19T05:26:31;91597.69;;;-0.43;73.88
39455;BME280;25155;41.890;23.446;2023-11-19T05:28:58;91593.31;;;-0.35;73.72
39455;BME280;25155;41.890;23.446;2023-11-19T05:31:25;91606.31;;;-0.37;73.53
39455;BME280;25155;41.890;23.446;2023-11-19T05:33:53;91609.84;;;-0.31;73.28
39455;BME280;25155;41.890;23.446;2023-11-19T05:36:21;91627.38;;;-0.28;73.46
39455;BME280;25155;41.890;23.446;2023-11-19T05:38:49;91616.72;;;0.13;73.13
39455;BME280;25155;41.890;23.446;2023-11-19T05:41:16;91611.34;;;0.72;70.72
39455;BME280;25155;41.890;23.446;2023-11-19T05:43:43;91635.09;;;1.29;69.71
39455;BME280;25155;41.890;23.446;2023-11-19T05:46:10;91626.16;;;1.88;67.17
39455;BME280;25155;41.890;23.446;2023-11-19T05:48:39;91615.97;;;2.23;63.83
39455;BME280;25155;41.890;23.446;2023-11-19T05:51:06;91630.59;;;2.53;65.03
39455;BME280;25155;41.890;23.446;2023-11-19T05:53:35;91639.50;;;3.04;63.85
39455;BME280;25155;41.890;23.446;2023-11-19T05:56:02;91645.19;;;3.54;63.85
39455;BME280;25155;41.890;23.446;2023-11-19T05:58:30;91652.88;;;3.89;61.63
39455;BME280;25155;41.890;23.446;2023-11-19T06:00:58;91641.53;;;3.90;58.90
39455;BME280;25155;41.890;23.446;2023-11-19T06:03:28;91652.09;;;3.77;60.50
39455;BME280;25155;41.890;23.446;2023-11-19T06:05:55;91628.38;;;3.63;59.81
39455;BME280;25155;41.890;23.446;2023-11-19T06:08:22;91634.34;;;3.51;60.37
39455;BME280;25155;41.890;23.446;2023-11-19T06:10:51;91641.28;;;3.39;59.72
39455;BME280;25155;41.890;23.446;2023-11-19T06:13:18;91635.59;;;3.13;59.35
39455;BME280;25155;41.890;23.446;2023-11-19T06:15:46;91645.69;;;2.91;60.26
39455;BME280;25155;41.890;23.446;2023-11-19T06:18:13;91647.66;;;2.89;61.48
39455;BME280;25155;41.890;23.446;2023-11-19T06:20:41;91659.56;;;3.02;62.37
39455;BME280;25155;41.890;23.446;2023-11-19T06:23:09;91670.41;;;3.16;62.44
39455;BME280;25155;41.890;23.446;2023-11-19T06:25:36;91669.66;;;3.27;62.81
39455;BME280;25155;41.890;23.446;2023-11-19T06:28:05;91681.75;;;3.39;61.83
39455;BME280;25155;41.890;23.446;2023-11-19T06:30:33;91685.69;;;3.41;60.28
39455;BME280;25155;41.890;23.446;2023-11-19T06:33:02;91668.44;;;3.30;60.32
39455;BME280;25155;41.890;23.446;2023-11-19T06:35:30;91674.91;;;3.09;59.71
39455;BME280;25155;41.890;23.446;2023-11-19T06:38:02;91667.16;;;2.73;61.17
39455;BME280;25155;41.890;23.446;2023-11-19T06:40:30;91673.16;;;2.55;61.63
39455;BME280;25155;41.890;23.446;2023-11-19T06:42:57;91677.28;;;2.56;62.79
39455;BME280;25155;41.890;23.446;2023-11-19T06:45:26;91663.50;;;2.51;62.91
39455;BME280;25155;41.890;23.446;2023-11-19T06:47:54;91651.84;;;2.48;62.71
39455;BME280;25155;41.890;23.446;2023-11-19T06:50:21;91667.16;;;2.43;63.15
39455;BME280;25155;41.890;23.446;2023-11-19T06:52:49;91667.66;;;2.52;63.02
39455;BME280;25155;41.890;23.446;2023-11-19T06:55:17;91670.81;;;2.66;62.95
39455;BME280;25155;41.890;23.446;2023-11-19T06:57:44;91661.91;;;2.80;62.91
39455;BME280;25155;41.890;23.446;2023-11-19T07:00:12;91675.44;;;2.87;62.52
39455;BME280;25155;41.890;23.446;2023-11-19T07:02:40;91680.72;;;3.04;62.45
39455;BME280;25155;41.890;23.446;2023-11-19T07:05:10;91681.66;;;3.22;62.72
39455;BME280;25155;41.890;23.446;2023-11-19T07:07:38;91703.16;;;3.39;62.11
39455;BME280;25155;41.890;23.446;2023-11-19T07:10:07;91693.09;;;3.49;61.78
39455;BME280;25155;41.890;23.446;2023-11-19T07:12:35;91702.84;;;3.59;61.84
39455;BME280;25155;41.890;23.446;2023-11-19T07:15:03;91695.75;;;3.66;61.73
39455;BME280;25155;41.890;23.446;2023-11-19T07:17:30;91703.38;;;3.73;61.44
39455;BME280;25155;41.890;23.446;2023-11-19T07:19:59;91719.06;;;3.72;60.06
39455;BME280;25155;41.890;23.446;2023-11-19T07:22:26;91712.47;;;3.76;60.75
39455;BME280;25155;41.890;23.446;2023-11-19T07:24:55;91715.81;;;3.88;61.64
39455;BME280;25155;41.890;23.446;2023-11-19T07:27:22;91722.75;;;3.99;61.11
39455;BME280;25155;41.890;23.446;2023-11-19T07:29:50;91725.19;;;4.06;60.42
39455;BME280;25155;41.890;23.446;2023-11-19T07:32:17;91722.66;;;3.94;59.90
39455;BME280;25155;41.890;23.446;2023-11-19T07:34:45;91728.72;;;3.88;59.82
39455;BME280;25155;41.890;23.446;2023-11-19T07:37:13;91733.63;;;3.90;60.98
39455;BME280;25155;41.890;23.446;2023-11-19T07:39:42;91730.25;;;4.01;60.70
39455;BME280;25155;41.890;23.446;2023-11-19T07:42:10;91732.81;;;4.13;61.15
39455;BME280;25155;41.890;23.446;2023-11-19T07:44:37;91729.19;;;4.25;61.06
39455;BME280;25155;41.890;23.446;2023-11-19T07:47:04;91733.53;;;4.37;61.46
39455;BME280;25155;41.890;23.446;2023-11-19T07:49:32;91730.84;;;4.43;61.29
39455;BME280;25155;41.890;23.446;2023-11-19T07:51:59;91728.44;;;4.54;61.76
39455;BME280;25155;41.890;23.446;2023-11-19T07:54:30;91747.47;;;4.65;61.44
39455;BME280;25155;41.890;23.446;2023-11-19T07:56:58;91743.06;;;4.77;60.58
39455;BME280;25155;41.890;23.446;2023-11-19T07:59:25;91745.28;;;4.85;59.09
39455;BME280;25155;41.890;23.446;2023-11-19T08:01:53;91749.31;;;4.81;58.56
39455;BME280;25155;41.890;23.446;2023-11-19T08:04:20;91758.09;;;4.80;57.67
39455;BME280;25155;41.890;23.446;2023-11-19T08:06:47;91755.53;;;4.80;56.65
39455;BME280;25155;41.890;23.446;2023-11-19T08:09:15;91761.41;;;4.92;57.71
39455;BME280;25155;41.890;23.446;2023-11-19T08:11:43;91753.34;;;5.06;58.87
39455;BME280;25155;41.890;23.446;2023-11-19T08:14:11;91754.09;;;5.35;59.19
39455;BME280;25155;41.890;23.446;2023-11-19T08:16:39;91747.91;;;5.53;59.36
39455;BME280;25155;41.890;23.446;2023-11-19T08:19:07;91763.97;;;5.72;59.03
39455;BME280;25155;41.890;23.446;2023-11-19T08:21:34;91758.75;;;5.89;58.25
39455;BME280;25155;41.890;23.446;2023-11-19T08:24:02;91758.44;;;6.02;58.56
39455;BME280;25155;41.890;23.446;2023-11-19T08:26:29;91764.84;;;6.17;59.16
39455;BME280;25155;41.890;23.446;2023-11-19T08:28:57;91774.97;;;6.18;54.60
39455;BME280;25155;41.890;23.446;2023-11-19T08:31:25;91775.84;;;6.24;56.49
39455;BME280;25155;41.890;23.446;2023-11-19T08:33:52;91773.91;;;6.36;57.50
39455;BME280;25155;41.890;23.446;2023-11-19T08:36:19;91768.66;;;6.53;57.54
39455;BME280;25155;41.890;23.446;2023-11-19T08:38:47;91775.09;;;6.73;58.27
39455;BME280;25155;41.890;23.446;2023-11-19T08:41:15;91781.25;;;6.89;55.99
39455;BME280;25155;41.890;23.446;2023-11-19T08:43:43;91787.03;;;6.96;56.41
39455;BME280;25155;41.890;23.446;2023-11-19T08:46:12;91789.31;;;6.92;53.24
39455;BME280;25155;41.890;23.446;2023-11-19T08:48:39;91788.44;;;6.59;53.03
39455;BME280;25155;41.890;23.446;2023-11-19T08:51:07;91787.41;;;6.38;54.60
39455;BME280;25155;41.890;23.446;2023-11-19T08:53:34;91786.19;;;6.24;54.44
39455;BME280;25155;41.890;23.446;2023-11-19T08:56:01;91783.44;;;6.31;54.99
39455;BME280;25155;41.890;23.446;2023-11-19T08:58:29;91789.81;;;6.23;54.95
39455;BME280;25155;41.890;23.446;2023-11-19T09:00:56;91795.63;;;6.13;54.69
39455;BME280;25155;41.890;23.446;2023-11-19T09:03:25;91793.44;;;5.88;53.22
39455;BME280;25155;41.890;23.446;2023-11-19T09:05:55;91799.88;;;5.68;54.17
39455;BME280;25155;41.890;23.446;2023-11-19T09:08:22;91789.00;;;5.66;55.22
39455;BME280;25155;41.890;23.446;2023-11-19T09:10:50;91779.34;;;5.62;54.81
39455;BME280;25155;41.890;23.446;2023-11-19T09:13:17;91768.84;;;5.51;55.73
39455;BME280;25155;41.890;23.446;2023-11-19T09:15:44;91769.94;;;5.55;55.27
39455;BME280;25155;41.890;23.446;2023-11-19T09:18:11;91760.13;;;5.58;55.99
39455;BME280;25155;41.890;23.446;2023-11-19T09:20:40;91758.56;;;5.57;54.95
39455;BME280;25155;41.890;23.446;2023-11-19T09:23:08;91773.06;;;5.58;56.24
39455;BME280;25155;41.890;23.446;2023-11-19T09:25:35;91780.75;;;5.69;56.07
39455;BME280;25155;41.890;23.446;2023-11-19T09:28:03;91767.78;;;5.86;55.46
39455;BME280;25155;41.890;23.446;2023-11-19T09:30:30;91763.75;;;5.96;55.75
39455;BME280;25155;41.890;23.446;2023-11-19T09:32:59;91761.03;;;6.02;55.62
39455;BME280;25155;41.890;23.446;2023-11-19T09:35:27;91755.38;;;6.05;55.77
39455;BME280;25155;41.890;23.446;2023-11-19T09:37:55;91747.19;;;6.14;55.35
39455;BME280;25155;41.890;23.446;2023-11-19T09:40:23;91756.19;;;6.28;54.98
39455;BME280;25155;41.890;23.446;2023-11-19T09:42:50;91749.50;;;6.32;55.47
39455;BME280;25155;41.890;23.446;2023-11-19T09:45:21;91743.59;;;6.37;53.80
39455;BME280;25155;41.890;23.446;2023-11-19T09:47:51;91743.47;;;6.26;54.59
39455;BME280;25155;41.890;23.446;2023-11-19T09:50:19;91757.63;;;6.19;54.99
39455;BME280;25155;41.890;23.446;2023-11-19T09:52:47;91755.66;;;6.26;54.18
39455;BME280;25155;41.890;23.446;2023-11-19T09:55:16;91759.38;;;6.35;53.82
39455;BME280;25155;41.890;23.446;2023-11-19T09:57:43;91757.75;;;6.51;54.09
39455;BME280;25155;41.890;23.446;2023-11-19T10:00:13;91740.22;;;6.58;52.94
39455;BME280;25155;41.890;23.446;2023-11-19T10:02:41;91728.78;;;6.54;51.75
39455;BME280;25155;41.890;23.446;2023-11-19T10:05:11;91717.75;;;6.64;53.39
39455;BME280;25155;41.890;23.446;2023-11-19T10:07:40;91707.28;;;6.81;52.93
39455;BME280;25155;41.890;23.446;2023-11-19T10:10:09;91704.00;;;6.91;52.70
39455;BME280;25155;41.890;23.446;2023-11-19T10:12:41;91702.03;;;7.03;51.83
39455;BME280;25155;41.890;23.446;2023-11-19T10:15:14;91706.28;;;7.14;51.32
39455;BME280;25155;41.890;23.446;2023-11-19T10:17:44;91708.94;;;7.25;51.80
39455;BME280;25155;41.890;23.446;2023-11-19T10:20:11;91714.78;;;7.37;52.87
39455;BME280;25155;41.890;23.446;2023-11-19T10:22:38;91715.09;;;7.46;51.28
39455;BME280;25155;41.890;23.446;2023-11-19T10:25:21;91703.44;;;7.48;51.11
39455;BME280;25155;41.890;23.446;2023-11-19T10:27:50;91705.66;;;7.34;50.64
39455;BME280;25155;41.890;23.446;2023-11-19T10:30:19;91691.38;;;7.32;51.20
39455;BME280;25155;41.890;23.446;2023-11-19T10:33:03;91693.19;;;7.31;50.83
39455;BME280;25155;41.890;23.446;2023-11-19T10:35:31;91700.25;;;7.41;51.59
39455;BME280;25155;41.890;23.446;2023-11-19T10:38:00;91701.91;;;7.52;50.44
39455;BME280;25155;41.890;23.446;2023-11-19T10:40:38;91686.06;;;7.54;50.83
39455;BME280;25155;41.890;23.446;2023-11-19T10:43:08;91694.97;;;7.63;50.49
39455;BME280;25155;41.890;23.446;2023-11-19T10:45:36;91686.34;;;7.57;49.67
39455;BME280;25155;41.890;23.446;2023-11-19T10:48:05;91680.13;;;7.53;50.23
39455;BME280;25155;41.890;23.446;2023-11-19T10:50:33;91670.25;;;7.55;50.73
39455;BME280;25155;41.890;23.446;2023-11-19T10:53:03;91679.16;;;7.65;49.44
39455;BME280;25155;41.890;23.446;2023-11-19T10:55:33;91683.53;;;7.64;50.11
39455;BME280;25155;41.890;23.446;2023-11-19T10:58:02;91686.41;;;7.68;49.50
39455;BME280;25155;41.890;23.446;2023-11-19T11:00:36;91679.03;;;7.49;49.68
39455;BME280;25155;41.890;23.446;2023-11-19T11:03:17;91683.25;;;7.61;50.03
39455;BME280;25155;41.890;23.446;2023-11-19T11:05:47;91681.78;;;7.70;50.02
39455;BME280;25155;41.890;23.446;2023-11-19T11:08:16;91693.19;;;7.69;49.90
39455;BME280;25155;41.890;23.446;2023-11-19T11:10:45;91683.25;;;7.61;49.27
39455;BME280;25155;41.890;23.446;2023-11-19T11:13:13;91688.47;;;7.66;48.82
39455;BME280;25155;41.890;23.446;2023-11-19T11:15:42;91687.97;;;7.64;49.20
39455;BME280;25155;41.890;23.446;2023-11-19T11:18:13;91681.19;;;7.63;49.76
39455;BME280;25155;41.890;23.446;2023-11-19T11:20:40;91674.91;;;7.53;49.78
39455;BME280;25155;41.890;23.446;2023-11-19T11:26:14;91680.25;;;7.79;49.75
39455;BME280;25155;41.890;23.446;2023-11-19T11:28:52;91677.75;;;7.94;50.82
39455;BME280;25155;41.890;23.446;2023-11-19T11:31:48;91674.19;;;8.11;49.76
39455;BME280;25155;41.890;23.446;2023-11-19T11:34:47;91666.91;;;8.08;49.38
39455;BME280;25155;41.890;23.446;2023-11-19T11:37:19;91665.91;;;8.19;49.43
39455;BME280;25155;41.890;23.446;2023-11-19T11:39:49;91662.75;;;8.12;48.90
39455;BME280;25155;41.890;23.446;2023-11-19T11:42:35;91671.06;;;8.14;48.74
39455;BME280;25155;41.890;23.446;2023-11-19T11:45:05;91675.84;;;8.32;49.39
39455;BME280;25155;41.890;23.446;2023-11-19T11:48:13;91682.03;;;8.26;48.47
39455;BME280;25155;41.890;23.446;2023-11-19T11:50:56;91677.63;;;8.32;49.08
39455;BME280;25155;41.890;23.446;2023-11-19T11:53:24;91675.34;;;8.41;48.83
39455;BME280;25155;41.890;23.446;2023-11-19T11:55:54;91678.50;;;8.43;48.46
39455;BME280;25155;41.890;23.446;2023-11-19T11:58:28;91683.66;;;8.38;48.09
39455;BME280;25155;41.890;23.446;2023-11-19T12:00:58;91692.47;;;8.31;48.59
39455;BME280;25155;41.890;23.446;2023-11-19T12:03:29;91690.84;;;8.20;48.37
39455;BME280;25155;41.890;23.446;2023-11-19T12:05:57;91680.16;;;8.06;48.17
39455;BME280;25155;41.890;23.446;2023-11-19T12:08:27;91674.34;;;7.89;48.67
39455;BME280;25155;41.890;23.446;2023-11-19T12:10:55;91671.47;;;7.85;48.84
39455;BME280;25155;41.890;23.446;2023-11-19T12:13:29;91665.75;;;7.83;48.56
39455;BME280;25155;41.890;23.446;2023-11-19T12:16:11;91652.25;;;7.81;48.55
39455;BME280;25155;41.890;23.446;2023-11-19T12:18:42;91662.81;;;7.74;49.04
39455;BME280;25155;41.890;23.446;2023-11-19T12:21:10;91668.06;;;7.80;49.78
39455;BME280;25155;41.890;23.446;2023-11-19T12:23:45;91672.50;;;7.84;49.55
39455;BME280;25155;41.890;23.446;2023-11-19T12:26:41;91671.50;;;7.90;49.82
39455;BME280;25155;41.890;23.446;2023-11-19T12:29:10;91668.94;;;8.01;49.49
39455;BME280;25155;41.890;23.446;2023-11-19T12:31:37;91666.88;;;8.03;48.56
39455;BME280;25155;41.890;23.446;2023-11-19T12:34:09;91668.16;;;8.00;48.75
39455;BME280;25155;41.890;23.446;2023-11-19T12:36:40;91672.88;;;8.08;48.89
39455;BME280;25155;41.890;23.446;2023-11-19T12:39:08;91661.25;;;8.26;48.48
39455;BME280;25155;41.890;23.446;2023-11-19T12:41:51;91664.91;;;8.30;48.54
39455;BME280;25155;41.890;23.446;2023-11-19T12:44:20;91654.09;;;8.49;48.89
39455;BME280;25155;41.890;23.446;2023-11-19T12:47:00;91653.34;;;8.64;48.36
39455;BME280;25155;41.890;23.446;2023-11-19T12:49:29;91661.69;;;8.76;47.67
39455;BME280;25155;41.890;23.446;2023-11-19T12:51:57;91647.59;;;8.72;47.17
39455;BME280;25155;41.890;23.446;2023-11-19T12:54:33;91647.38;;;8.79;47.96
39455;BME280;25155;41.890;23.446;2023-11-19T12:57:00;91643.47;;;8.97;47.30
39455;BME280;25155;41.890;23.446;2023-11-19T12:59:28;91632.81;;;8.98;46.83
39455;BME280;25155;41.890;23.446;2023-11-19T13:01:56;91639.06;;;9.02;46.70
39455;BME280;25155;41.890;23.446;2023-11-19T13:04:29;91618.00;;;9.14;47.41
39455;BME280;25155;41.890;23.446;2023-11-19T13:06:57;91614.06;;;9.37;47.49
39455;BME280;25155;41.890;23.446;2023-11-19T13:09:26;91610.16;;;9.55;47.24
39455;BME280;25155;41.890;23.446;2023-11-19T13:11:55;91607.50;;;9.71;46.76